sensor_id;sensor_type;location;lat;lon;timestamp;temperature;humidity
23681;DHT22;62915;50.832;4.462;2022-11-21T00:00:28;8.50;99.90
23681;DHT22;62915;50.832;4.462;2022-11-21T00:02:57;8.50;99.90
23681;DHT22;62915;50.832;4.462;2022-11-21T00:05:24;8.60;99.90
23681;DHT22;62915;50.832;4.462;2022-11-21T00:07:50;8.50;99.90
23681;DHT22;62915;50.832;4.462;2022-11-21T00:10:15;8.60;99.90
23681;DHT22;62915;50.832;4.462;2022-11-21T00:12:41;8.60;99.90
23681;DHT22;62915;50.832;4.462;2022-11-21T00:15:07;8.60;99.90
23681;DHT22;62915;50.832;4.462;2022-11-21T00:17:33;8.70;99.90
23681;DHT22;62915;50.832;4.462;2022-11-21T00:19:59;8.60;99.90
23681;DHT22;62915;50.832;4.462;2022-11-21T00:22:25;8.60;99.90
23681;DHT22;62915;50.832;4.462;2022-11-21T00:24:50;8.50;99.90
23681;DHT22;62915;50.832;4.462;2022-11-21T00:27:16;8.50;99.90
23681;DHT22;62915;50.832;4.462;2022-11-21T00:29:42;8.50;99.90
23681;DHT22;62915;50.832;4.462;2022-11-21T00:32:07;8.40;99.90
23681;DHT22;62915;50.832;4.462;2022-11-21T00:34:33;8.50;99.90
23681;DHT22;62915;50.832;4.462;2022-11-21T00:36:59;8.40;99.90
23681;DHT22;62915;50.832;4.462;2022-11-21T00:39:24;8.30;99.90
23681;DHT22;62915;50.832;4.462;2022-11-21T00:41:50;8.40;99.90
23681;DHT22;62915;50.832;4.462;2022-11-21T00:44:16;8.40;99.90
23681;DHT22;62915;50.832;4.462;2022-11-21T00:46:42;8.30;99.90
23681;DHT22;62915;50.832;4.462;2022-11-21T00:49:07;8.30;99.90
23681;DHT22;62915;50.832;4.462;2022-11-21T00:51:33;8.30;99.90
23681;DHT22;62915;50.832;4.462;2022-11-21T00:53:59;8.20;99.90
23681;DHT22;62915;50.832;4.462;2022-11-21T00:56:24;8.30;99.90
23681;DHT22;62915;50.832;4.462;2022-11-21T00:58:50;8.30;99.90
23681;DHT22;62915;50.832;4.462;2022-11-21T01:01:15;8.20;99.90
23681;DHT22;62915;50.832;4.462;2022-11-21T01:03:42;8.20;99.90
23681;DHT22;62915;50.832;4.462;2022-11-21T01:06:12;8.20;99.90
23681;DHT22;62915;50.832;4.462;2022-11-21T01:08:40;8.20;99.90
23681;DHT22;62915;50.832;4.462;2022-11-21T01:11:15;8.20;99.90
23681;DHT22;62915;50.832;4.462;2022-11-21T01:13:41;8.30;99.90
23681;DHT22;62915;50.832;4.462;2022-11-21T01:16:10;8.20;99.90
23681;DHT22;62915;50.832;4.462;2022-11-21T01:18:37;8.20;99.90
23681;DHT22;62915;50.832;4.462;2022-11-21T01:21:05;8.30;99.90
23681;DHT22;62915;50.832;4.462;2022-11-21T01:23:32;8.30;99.90
23681;DHT22;62915;50.832;4.462;2022-11-21T01:26:06;8.30;99.90
23681;DHT22;62915;50.832;4.462;2022-11-21T01:28:32;8.30;99.90
23681;DHT22;62915;50.832;4.462;2022-11-21T01:31:06;8.30;99.90
23681;DHT22;62915;50.832;4.462;2022-11-21T01:33:33;8.20;99.90
23681;DHT22;62915;50.832;4.462;2022-11-21T01:36:22;8.20;99.90
23681;DHT22;62915;50.832;4.462;2022-11-21T01:38:51;8.20;99.90
23681;DHT22;62915;50.832;4.462;2022-11-21T01:41:20;8.20;99.90
23681;DHT22;62915;50.832;4.462;2022-11-21T01:43:46;8.10;99.90
23681;DHT22;62915;50.832;4.462;2022-11-21T01:46:17;8.20;99.90
23681;DHT22;62915;50.832;4.462;2022-11-21T01:51:32;8.00;99.90
23681;DHT22;62915;50.832;4.462;2022-11-21T01:54:09;8.10;99.90
23681;DHT22;62915;50.832;4.462;2022-11-21T01:56:51;8.10;99.90
23681;DHT22;62915;50.832;4.462;2022-11-21T01:59:47;8.10;99.90
23681;DHT22;62915;50.832;4.462;2022-11-21T02:02:16;8.20;99.90
23681;DHT22;62915;50.832;4.462;2022-11-21T02:04:43;8.10;99.90
23681;DHT22;62915;50.832;4.462;2022-11-21T02:07:11;8.10;99.90
23681;DHT22;62915;50.832;4.462;2022-11-21T02:09:39;8.10;99.90
23681;DHT22;62915;50.832;4.462;2022-11-21T02:12:30;8.10;99.90
23681;DHT22;62915;50.832;4.462;2022-11-21T02:14:58;8.10;99.90
23681;DHT22;62915;50.832;4.462;2022-11-21T02:17:25;8.20;99.90
23681;DHT22;62915;50.832;4.462;2022-11-21T02:19:58;8.20;99.90
23681;DHT22;62915;50.832;4.462;2022-11-21T02:27:27;8.20;99.90
23681;DHT22;62915;50.832;4.462;2022-11-21T02:29:53;8.20;99.90
23681;DHT22;62915;50.832;4.462;2022-11-21T02:32:21;8.20;99.90
23681;DHT22;62915;50.832;4.462;2022-11-21T02:34:47;8.20;99.90
23681;DHT22;62915;50.832;4.462;2022-11-21T02:37:13;8.30;99.90
23681;DHT22;62915;50.832;4.462;2022-11-21T02:39:39;8.40;99.90
23681;DHT22;62915;50.832;4.462;2022-11-21T02:42:14;8.40;99.90
23681;DHT22;62915;50.832;4.462;2022-11-21T02:47:09;8.40;99.90
23681;DHT22;62915;50.832;4.462;2022-11-21T02:52:45;8.40;99.90
23681;DHT22;62915;50.832;4.462;2022-11-21T02:55:11;8.20;99.90
23681;DHT22;62915;50.832;4.462;2022-11-21T02:57:38;8.20;99.90
23681;DHT22;62915;50.832;4.462;2022-11-21T03:00:05;8.20;99.90
23681;DHT22;62915;50.832;4.462;2022-11-21T03:02:31;8.20;99.90
23681;DHT22;62915;50.832;4.462;2022-11-21T03:04:56;8.20;99.90
23681;DHT22;62915;50.832;4.462;2022-11-21T03:07:22;8.00;99.90
23681;DHT22;62915;50.832;4.462;2022-11-21T03:09:48;7.90;99.90
23681;DHT22;62915;50.832;4.462;2022-11-21T03:12:14;8.00;99.90
23681;DHT22;62915;50.832;4.462;2022-11-21T03:14:39;8.00;99.90
23681;DHT22;62915;50.832;4.462;2022-11-21T03:17:05;8.00;99.90
23681;DHT22;62915;50.832;4.462;2022-11-21T03:19:31;8.00;99.90
23681;DHT22;62915;50.832;4.462;2022-11-21T03:21:56;8.10;99.90
23681;DHT22;62915;50.832;4.462;2022-11-21T03:24:22;8.00;99.90
23681;DHT22;62915;50.832;4.462;2022-11-21T03:26:49;8.10;99.90
23681;DHT22;62915;50.832;4.462;2022-11-21T03:29:14;8.00;99.90
23681;DHT22;62915;50.832;4.462;2022-11-21T03:31:40;7.90;99.90
23681;DHT22;62915;50.832;4.462;2022-11-21T03:34:06;7.90;99.90
23681;DHT22;62915;50.832;4.462;2022-11-21T03:36:32;8.10;99.90
23681;DHT22;62915;50.832;4.462;2022-11-21T03:38:57;8.00;99.90
23681;DHT22;62915;50.832;4.462;2022-11-21T03:41:25;7.90;99.90
23681;DHT22;62915;50.832;4.462;2022-11-21T03:44:04;7.90;99.90
23681;DHT22;62915;50.832;4.462;2022-11-21T03:46:33;8.00;99.90
23681;DHT22;62915;50.832;4.462;2022-11-21T03:48:59;7.90;99.90
23681;DHT22;62915;50.832;4.462;2022-11-21T03:51:25;7.90;99.90
23681;DHT22;62915;50.832;4.462;2022-11-21T03:53:51;7.80;99.90
23681;DHT22;62915;50.832;4.462;2022-11-21T03:56:17;7.80;99.90
23681;DHT22;62915;50.832;4.462;2022-11-21T03:58:43;7.70;99.90
23681;DHT22;62915;50.832;4.462;2022-11-21T04:01:09;7.80;99.90
23681;DHT22;62915;50.832;4.462;2022-11-21T04:03:34;7.80;99.90
23681;DHT22;62915;50.832;4.462;2022-11-21T04:06:00;7.70;99.90
23681;DHT22;62915;50.832;4.462;2022-11-21T04:08:26;7.70;99.90
23681;DHT22;62915;50.832;4.462;2022-11-21T04:10:53;7.70;99.90
23681;DHT22;62915;50.832;4.462;2022-11-21T04:13:19;7.70;99.90
23681;DHT22;62915;50.832;4.462;2022-11-21T04:15:46;7.80;99.90
23681;DHT22;62915;50.832;4.462;2022-11-21T04:18:12;7.70;99.90
23681;DHT22;62915;50.832;4.462;2022-11-21T04:20:38;7.70;99.90
23681;DHT22;62915;50.832;4.462;2022-11-21T04:23:05;7.70;99.90
23681;DHT22;62915;50.832;4.462;2022-11-21T04:25:31;7.70;99.90
23681;DHT22;62915;50.832;4.462;2022-11-21T04:27:59;7.70;99.90
23681;DHT22;62915;50.832;4.462;2022-11-21T04:30:26;7.70;99.90
23681;DHT22;62915;50.832;4.462;2022-11-21T04:32:53;7.70;99.90
23681;DHT22;62915;50.832;4.462;2022-11-21T04:35:20;7.50;99.90
23681;DHT22;62915;50.832;4.462;2022-11-21T04:37:46;7.50;99.90
23681;DHT22;62915;50.832;4.462;2022-11-21T04:40:12;7.50;99.90
23681;DHT22;62915;50.832;4.462;2022-11-21T04:42:45;7.50;99.90
23681;DHT22;62915;50.832;4.462;2022-11-21T04:45:14;7.50;99.90
23681;DHT22;62915;50.832;4.462;2022-11-21T04:47:43;7.60;99.90
23681;DHT22;62915;50.832;4.462;2022-11-21T04:50:11;7.60;99.90
23681;DHT22;62915;50.832;4.462;2022-11-21T04:52:37;7.60;99.90
23681;DHT22;62915;50.832;4.462;2022-11-21T04:55:04;7.50;99.90
23681;DHT22;62915;50.832;4.462;2022-11-21T04:57:31;7.50;99.90
23681;DHT22;62915;50.832;4.462;2022-11-21T04:59:58;7.50;99.90
23681;DHT22;62915;50.832;4.462;2022-11-21T05:02:25;7.70;99.90
23681;DHT22;62915;50.832;4.462;2022-11-21T05:04:51;7.60;99.90
23681;DHT22;62915;50.832;4.462;2022-11-21T05:07:17;7.60;99.90
23681;DHT22;62915;50.832;4.462;2022-11-21T05:09:43;7.50;99.90
23681;DHT22;62915;50.832;4.462;2022-11-21T05:12:09;7.60;99.90
23681;DHT22;62915;50.832;4.462;2022-11-21T05:14:54;7.60;99.90
23681;DHT22;62915;50.832;4.462;2022-11-21T05:17:20;7.60;99.90
23681;DHT22;62915;50.832;4.462;2022-11-21T05:19:46;7.60;99.90
23681;DHT22;62915;50.832;4.462;2022-11-21T05:22:11;7.60;99.90
23681;DHT22;62915;50.832;4.462;2022-11-21T05:24:38;7.60;99.90
23681;DHT22;62915;50.832;4.462;2022-11-21T05:27:04;7.60;99.90
23681;DHT22;62915;50.832;4.462;2022-11-21T05:29:30;7.60;99.90
23681;DHT22;62915;50.832;4.462;2022-11-21T05:31:56;7.60;99.90
23681;DHT22;62915;50.832;4.462;2022-11-21T05:34:22;7.50;99.90
23681;DHT22;62915;50.832;4.462;2022-11-21T05:36:47;7.60;99.90
23681;DHT22;62915;50.832;4.462;2022-11-21T05:39:13;7.50;99.90
23681;DHT22;62915;50.832;4.462;2022-11-21T05:41:40;7.60;99.90
23681;DHT22;62915;50.832;4.462;2022-11-21T05:44:06;7.60;99.90
23681;DHT22;62915;50.832;4.462;2022-11-21T05:46:32;7.70;99.90
23681;DHT22;62915;50.832;4.462;2022-11-21T05:48:57;7.70;99.90
23681;DHT22;62915;50.832;4.462;2022-11-21T05:51:23;7.70;99.90
23681;DHT22;62915;50.832;4.462;2022-11-21T05:53:49;7.80;99.90
23681;DHT22;62915;50.832;4.462;2022-11-21T05:56:17;7.70;99.90
23681;DHT22;62915;50.832;4.462;2022-11-21T05:58:43;7.50;99.90
23681;DHT22;62915;50.832;4.462;2022-11-21T06:01:11;7.50;99.90
23681;DHT22;62915;50.832;4.462;2022-11-21T06:03:39;7.50;99.90
23681;DHT22;62915;50.832;4.462;2022-11-21T06:06:10;7.50;99.90
23681;DHT22;62915;50.832;4.462;2022-11-21T06:08:39;7.40;99.90
23681;DHT22;62915;50.832;4.462;2022-11-21T06:11:06;7.40;99.90
23681;DHT22;62915;50.832;4.462;2022-11-21T06:13:32;7.40;99.90
23681;DHT22;62915;50.832;4.462;2022-11-21T06:16:00;7.30;99.90
23681;DHT22;62915;50.832;4.462;2022-11-21T06:18:27;7.20;99.90
23681;DHT22;62915;50.832;4.462;2022-11-21T06:20:53;7.30;99.90
23681;DHT22;62915;50.832;4.462;2022-11-21T06:23:19;7.30;99.90
23681;DHT22;62915;50.832;4.462;2022-11-21T06:25:45;7.30;99.90
23681;DHT22;62915;50.832;4.462;2022-11-21T06:28:11;7.30;99.90
23681;DHT22;62915;50.832;4.462;2022-11-21T06:30:37;7.30;99.90
23681;DHT22;62915;50.832;4.462;2022-11-21T06:33:04;7.30;99.90
23681;DHT22;62915;50.832;4.462;2022-11-21T06:35:31;7.20;99.90
23681;DHT22;62915;50.832;4.462;2022-11-21T06:37:57;7.30;99.90
23681;DHT22;62915;50.832;4.462;2022-11-21T06:40:23;7.30;99.90
23681;DHT22;62915;50.832;4.462;2022-11-21T06:42:49;7.40;99.90
23681;DHT22;62915;50.832;4.462;2022-11-21T06:45:15;7.40;99.90
23681;DHT22;62915;50.832;4.462;2022-11-21T06:47:40;7.30;99.90
23681;DHT22;62915;50.832;4.462;2022-11-21T06:50:06;7.30;99.90
23681;DHT22;62915;50.832;4.462;2022-11-21T06:52:33;7.40;99.90
23681;DHT22;62915;50.832;4.462;2022-11-21T06:54:59;7.30;99.90
23681;DHT22;62915;50.832;4.462;2022-11-21T06:57:25;7.30;99.90
23681;DHT22;62915;50.832;4.462;2022-11-21T06:59:50;7.30;99.90
23681;DHT22;62915;50.832;4.462;2022-11-21T07:02:16;7.40;99.90
23681;DHT22;62915;50.832;4.462;2022-11-21T07:04:42;7.40;99.90
23681;DHT22;62915;50.832;4.462;2022-11-21T07:07:07;7.30;99.90
23681;DHT22;62915;50.832;4.462;2022-11-21T07:09:33;7.30;99.90
23681;DHT22;62915;50.832;4.462;2022-11-21T07:12:01;7.30;99.90
23681;DHT22;62915;50.832;4.462;2022-11-21T07:14:45;7.20;99.90
23681;DHT22;62915;50.832;4.462;2022-11-21T07:17:11;7.20;99.90
23681;DHT22;62915;50.832;4.462;2022-11-21T07:19:37;7.10;99.90
23681;DHT22;62915;50.832;4.462;2022-11-21T07:22:03;7.10;99.90
23681;DHT22;62915;50.832;4.462;2022-11-21T07:24:29;7.10;99.90
23681;DHT22;62915;50.832;4.462;2022-11-21T07:26:55;7.10;99.90
23681;DHT22;62915;50.832;4.462;2022-11-21T07:29:21;6.90;99.90
23681;DHT22;62915;50.832;4.462;2022-11-21T07:31:46;6.90;99.90
23681;DHT22;62915;50.832;4.462;2022-11-21T07:34:12;6.90;99.90
23681;DHT22;62915;50.832;4.462;2022-11-21T07:36:37;6.90;99.90
23681;DHT22;62915;50.832;4.462;2022-11-21T07:39:03;6.90;99.90
23681;DHT22;62915;50.832;4.462;2022-11-21T07:41:31;6.90;99.90
23681;DHT22;62915;50.832;4.462;2022-11-21T07:43:56;6.90;99.90
23681;DHT22;62915;50.832;4.462;2022-11-21T07:46:22;7.00;99.90
23681;DHT22;62915;50.832;4.462;2022-11-21T07:48:48;6.90;99.90
23681;DHT22;62915;50.832;4.462;2022-11-21T07:51:14;6.90;99.90
23681;DHT22;62915;50.832;4.462;2022-11-21T07:53:40;6.80;99.90
23681;DHT22;62915;50.832;4.462;2022-11-21T07:56:05;6.90;99.90
23681;DHT22;62915;50.832;4.462;2022-11-21T07:58:34;7.00;99.90
23681;DHT22;62915;50.832;4.462;2022-11-21T08:01:05;7.10;99.90
23681;DHT22;62915;50.832;4.462;2022-11-21T08:03:32;7.10;99.90
23681;DHT22;62915;50.832;4.462;2022-11-21T08:06:01;7.00;99.90
23681;DHT22;62915;50.832;4.462;2022-11-21T08:08:30;7.10;99.90
23681;DHT22;62915;50.832;4.462;2022-11-21T08:10:56;7.10;99.90
23681;DHT22;62915;50.832;4.462;2022-11-21T08:13:23;7.20;99.90
23681;DHT22;62915;50.832;4.462;2022-11-21T08:15:48;7.20;99.90
23681;DHT22;62915;50.832;4.462;2022-11-21T08:18:17;7.10;99.90
23681;DHT22;62915;50.832;4.462;2022-11-21T08:20:43;7.00;99.90
23681;DHT22;62915;50.832;4.462;2022-11-21T08:23:10;7.00;99.90
23681;DHT22;62915;50.832;4.462;2022-11-21T08:25:36;7.00;99.90
23681;DHT22;62915;50.832;4.462;2022-11-21T08:28:04;7.20;99.90
23681;DHT22;62915;50.832;4.462;2022-11-21T08:30:30;7.10;99.90
23681;DHT22;62915;50.832;4.462;2022-11-21T08:32:57;7.20;99.90
23681;DHT22;62915;50.832;4.462;2022-11-21T08:35:24;7.20;99.90
23681;DHT22;62915;50.832;4.462;2022-11-21T08:38:00;7.30;99.90
23681;DHT22;62915;50.832;4.462;2022-11-21T08:40:27;7.20;99.90
23681;DHT22;62915;50.832;4.462;2022-11-21T08:43:02;7.20;99.90
23681;DHT22;62915;50.832;4.462;2022-11-21T08:45:28;7.20;99.90
23681;DHT22;62915;50.832;4.462;2022-11-21T08:47:55;7.10;99.90
23681;DHT22;62915;50.832;4.462;2022-11-21T08:50:22;7.10;99.90
23681;DHT22;62915;50.832;4.462;2022-11-21T08:52:48;7.10;99.90
23681;DHT22;62915;50.832;4.462;2022-11-21T08:55:14;7.10;99.90
23681;DHT22;62915;50.832;4.462;2022-11-21T08:57:41;7.10;99.90
23681;DHT22;62915;50.832;4.462;2022-11-21T09:00:08;7.10;99.90
23681;DHT22;62915;50.832;4.462;2022-11-21T09:02:37;7.10;99.90
23681;DHT22;62915;50.832;4.462;2022-11-21T09:05:04;7.20;99.90
23681;DHT22;62915;50.832;4.462;2022-11-21T09:07:30;7.40;99.90
23681;DHT22;62915;50.832;4.462;2022-11-21T09:09:56;7.40;99.90
23681;DHT22;62915;50.832;4.462;2022-11-21T09:12:21;7.60;99.90
23681;DHT22;62915;50.832;4.462;2022-11-21T09:14:47;7.60;99.90
23681;DHT22;62915;50.832;4.462;2022-11-21T09:17:31;7.70;99.90
23681;DHT22;62915;50.832;4.462;2022-11-21T09:20:15;7.70;99.90
23681;DHT22;62915;50.832;4.462;2022-11-21T09:22:41;8.00;99.90
23681;DHT22;62915;50.832;4.462;2022-11-21T09:25:07;8.20;99.90
23681;DHT22;62915;50.832;4.462;2022-11-21T09:27:33;8.60;99.90
23681;DHT22;62915;50.832;4.462;2022-11-21T09:29:58;8.80;99.90
23681;DHT22;62915;50.832;4.462;2022-11-21T09:32:24;9.00;99.90
23681;DHT22;62915;50.832;4.462;2022-11-21T09:34:50;9.30;99.90
23681;DHT22;62915;50.832;4.462;2022-11-21T09:37:15;9.50;99.90
23681;DHT22;62915;50.832;4.462;2022-11-21T09:39:41;9.70;99.90
23681;DHT22;62915;50.832;4.462;2022-11-21T09:42:32;10.00;99.90
23681;DHT22;62915;50.832;4.462;2022-11-21T09:45:09;10.40;99.90
23681;DHT22;62915;50.832;4.462;2022-11-21T09:47:42;10.60;99.90
23681;DHT22;62915;50.832;4.462;2022-11-21T09:53:00;10.50;99.90
23681;DHT22;62915;50.832;4.462;2022-11-21T09:58:05;11.10;99.90
23681;DHT22;62915;50.832;4.462;2022-11-21T10:00:32;11.00;99.90
23681;DHT22;62915;50.832;4.462;2022-11-21T10:02:59;11.10;99.90
23681;DHT22;62915;50.832;4.462;2022-11-21T10:05:53;11.40;99.90
23681;DHT22;62915;50.832;4.462;2022-11-21T10:14:14;11.50;99.90
23681;DHT22;62915;50.832;4.462;2022-11-21T10:16:50;11.30;99.90
23681;DHT22;62915;50.832;4.462;2022-11-21T10:22:03;10.30;99.90
23681;DHT22;62915;50.832;4.462;2022-11-21T10:24:39;10.10;99.90
23681;DHT22;62915;50.832;4.462;2022-11-21T10:27:31;9.70;99.90
23681;DHT22;62915;50.832;4.462;2022-11-21T10:30:20;9.40;99.90
23681;DHT22;62915;50.832;4.462;2022-11-21T10:32:53;9.10;99.90
23681;DHT22;62915;50.832;4.462;2022-11-21T10:35:34;9.00;99.90
23681;DHT22;62915;50.832;4.462;2022-11-21T10:38:18;8.80;99.90
23681;DHT22;62915;50.832;4.462;2022-11-21T10:43:24;8.90;99.90
23681;DHT22;62915;50.832;4.462;2022-11-21T10:46:09;8.80;99.90
23681;DHT22;62915;50.832;4.462;2022-11-21T10:48:35;8.90;99.90
23681;DHT22;62915;50.832;4.462;2022-11-21T10:51:40;8.80;99.90
23681;DHT22;62915;50.832;4.462;2022-11-21T10:54:10;8.90;99.90
23681;DHT22;62915;50.832;4.462;2022-11-21T10:57:11;8.80;99.90
23681;DHT22;62915;50.832;4.462;2022-11-21T10:59:38;8.70;99.90
23681;DHT22;62915;50.832;4.462;2022-11-21T11:04:39;8.90;99.90
23681;DHT22;62915;50.832;4.462;2022-11-21T11:07:25;8.90;99.90
23681;DHT22;62915;50.832;4.462;2022-11-21T11:09:52;8.90;99.90
23681;DHT22;62915;50.832;4.462;2022-11-21T11:12:27;8.70;99.90
23681;DHT22;62915;50.832;4.462;2022-11-21T11:15:30;8.70;99.90
23681;DHT22;62915;50.832;4.462;2022-11-21T11:18:01;8.70;99.90
23681;DHT22;62915;50.832;4.462;2022-11-21T11:20:35;8.60;99.90
23681;DHT22;62915;50.832;4.462;2022-11-21T11:23:43;8.60;99.90
23681;DHT22;62915;50.832;4.462;2022-11-21T11:25:59;8.70;99.90
23681;DHT22;62915;50.832;4.462;2022-11-21T11:28:33;8.90;99.90
23681;DHT22;62915;50.832;4.462;2022-11-21T11:30:59;9.00;99.90
23681;DHT22;62915;50.832;4.462;2022-11-21T11:36:01;9.00;99.90
23681;DHT22;62915;50.832;4.462;2022-11-21T11:38:29;9.10;99.90
23681;DHT22;62915;50.832;4.462;2022-11-21T11:40:59;9.10;99.90
23681;DHT22;62915;50.832;4.462;2022-11-21T11:47:02;9.00;99.90
23681;DHT22;62915;50.832;4.462;2022-11-21T11:49:54;8.90;99.90
23681;DHT22;62915;50.832;4.462;2022-11-21T11:57:55;9.10;99.90
23681;DHT22;62915;50.832;4.462;2022-11-21T12:01:05;9.20;99.90
23681;DHT22;62915;50.832;4.462;2022-11-21T12:03:30;9.30;99.90
23681;DHT22;62915;50.832;4.462;2022-11-21T12:06:42;9.30;99.90
23681;DHT22;62915;50.832;4.462;2022-11-21T12:12:03;9.20;99.90
23681;DHT22;62915;50.832;4.462;2022-11-21T12:14:59;9.20;99.90
23681;DHT22;62915;50.832;4.462;2022-11-21T12:23:50;9.50;99.90
23681;DHT22;62915;50.832;4.462;2022-11-21T12:26:47;9.60;99.90
23681;DHT22;62915;50.832;4.462;2022-11-21T12:29:52;9.50;99.90
23681;DHT22;62915;50.832;4.462;2022-11-21T12:41:00;9.50;99.90
23681;DHT22;62915;50.832;4.462;2022-11-21T12:44:18;9.60;99.90
23681;DHT22;62915;50.832;4.462;2022-11-21T12:46:51;9.50;99.90
23681;DHT22;62915;50.832;4.462;2022-11-21T12:49:51;9.60;99.90
23681;DHT22;62915;50.832;4.462;2022-11-21T12:52:40;9.60;99.90
23681;DHT22;62915;50.832;4.462;2022-11-21T12:55:43;9.60;99.90
23681;DHT22;62915;50.832;4.462;2022-11-21T13:04:07;9.70;99.90
23681;DHT22;62915;50.832;4.462;2022-11-21T13:06:36;9.70;99.90
23681;DHT22;62915;50.832;4.462;2022-11-21T13:09:07;9.80;99.90
23681;DHT22;62915;50.832;4.462;2022-11-21T13:20:03;9.90;99.90
23681;DHT22;62915;50.832;4.462;2022-11-21T13:25:12;10.00;99.90
23681;DHT22;62915;50.832;4.462;2022-11-21T13:27:49;10.00;99.90
23681;DHT22;62915;50.832;4.462;2022-11-21T13:30:16;9.90;99.90
23681;DHT22;62915;50.832;4.462;2022-11-21T13:32:48;9.90;99.90
23681;DHT22;62915;50.832;4.462;2022-11-21T13:43:23;10.00;99.90
23681;DHT22;62915;50.832;4.462;2022-11-21T13:45:50;10.00;99.90
23681;DHT22;62915;50.832;4.462;2022-11-21T13:54:10;10.00;99.90
23681;DHT22;62915;50.832;4.462;2022-11-21T13:59:43;10.00;99.90
23681;DHT22;62915;50.832;4.462;2022-11-21T14:05:02;10.00;99.90
23681;DHT22;62915;50.832;4.462;2022-11-21T14:07:32;10.00;99.90
23681;DHT22;62915;50.832;4.462;2022-11-21T14:10:45;10.00;99.90
23681;DHT22;62915;50.832;4.462;2022-11-21T14:12:48;10.00;99.90
23681;DHT22;62915;50.832;4.462;2022-11-21T14:18:21;10.00;99.90
23681;DHT22;62915;50.832;4.462;2022-11-21T14:20:48;10.00;99.90
23681;DHT22;62915;50.832;4.462;2022-11-21T14:23:19;10.00;99.90
23681;DHT22;62915;50.832;4.462;2022-11-21T14:25:48;10.00;99.90
23681;DHT22;62915;50.832;4.462;2022-11-21T14:28:23;9.90;99.90
23681;DHT22;62915;50.832;4.462;2022-11-21T14:30:56;10.00;99.90
23681;DHT22;62915;50.832;4.462;2022-11-21T14:33:33;10.00;99.90
23681;DHT22;62915;50.832;4.462;2022-11-21T14:38:28;10.00;99.90
23681;DHT22;62915;50.832;4.462;2022-11-21T14:46:24;10.00;99.90
23681;DHT22;62915;50.832;4.462;2022-11-21T14:48:50;9.90;99.90
23681;DHT22;62915;50.832;4.462;2022-11-21T14:51:20;9.90;99.90
23681;DHT22;62915;50.832;4.462;2022-11-21T14:53:48;9.90;99.90
23681;DHT22;62915;50.832;4.462;2022-11-21T14:56:26;10.00;99.90
23681;DHT22;62915;50.832;4.462;2022-11-21T14:58:56;9.90;99.90
23681;DHT22;62915;50.832;4.462;2022-11-21T15:01:31;9.90;99.90
23681;DHT22;62915;50.832;4.462;2022-11-21T15:06:24;9.70;99.90
23681;DHT22;62915;50.832;4.462;2022-11-21T15:08:53;9.70;99.90
23681;DHT22;62915;50.832;4.462;2022-11-21T15:11:57;9.70;99.90
23681;DHT22;62915;50.832;4.462;2022-11-21T15:14:20;9.70;99.90
23681;DHT22;62915;50.832;4.462;2022-11-21T15:16:48;9.90;99.90
23681;DHT22;62915;50.832;4.462;2022-11-21T15:19:26;9.80;99.90
23681;DHT22;62915;50.832;4.462;2022-11-21T15:21:58;9.90;99.90
23681;DHT22;62915;50.832;4.462;2022-11-21T15:25:03;9.90;99.90
23681;DHT22;62915;50.832;4.462;2022-11-21T15:27:31;9.90;99.90
23681;DHT22;62915;50.832;4.462;2022-11-21T15:32:26;9.90;99.90
23681;DHT22;62915;50.832;4.462;2022-11-21T15:34:52;9.90;99.90
23681;DHT22;62915;50.832;4.462;2022-11-21T15:37:17;9.70;99.90
23681;DHT22;62915;50.832;4.462;2022-11-21T15:39:45;9.60;99.90
23681;DHT22;62915;50.832;4.462;2022-11-21T15:42:33;9.60;99.90
23681;DHT22;62915;50.832;4.462;2022-11-21T15:47:38;9.70;99.90
23681;DHT22;62915;50.832;4.462;2022-11-21T15:50:06;9.70;99.90
23681;DHT22;62915;50.832;4.462;2022-11-21T15:52:49;9.60;99.90
23681;DHT22;62915;50.832;4.462;2022-11-21T15:55:26;9.70;99.90
23681;DHT22;62915;50.832;4.462;2022-11-21T15:57:53;9.70;99.90
23681;DHT22;62915;50.832;4.462;2022-11-21T16:00:20;9.50;99.90
23681;DHT22;62915;50.832;4.462;2022-11-21T16:02:46;9.60;99.90
23681;DHT22;62915;50.832;4.462;2022-11-21T16:05:13;9.70;99.90
23681;DHT22;62915;50.832;4.462;2022-11-21T16:07:40;9.80;99.90
23681;DHT22;62915;50.832;4.462;2022-11-21T16:10:06;9.70;99.90
23681;DHT22;62915;50.832;4.462;2022-11-21T16:12:32;9.80;99.90
23681;DHT22;62915;50.832;4.462;2022-11-21T16:14:58;9.80;99.90
23681;DHT22;62915;50.832;4.462;2022-11-21T16:17:23;9.70;99.90
23681;DHT22;62915;50.832;4.462;2022-11-21T16:19:50;9.70;99.90
23681;DHT22;62915;50.832;4.462;2022-11-21T16:22:17;9.80;99.90
23681;DHT22;62915;50.832;4.462;2022-11-21T16:24:43;9.70;99.90
23681;DHT22;62915;50.832;4.462;2022-11-21T16:27:09;9.70;99.90
23681;DHT22;62915;50.832;4.462;2022-11-21T16:29:36;9.80;99.90
23681;DHT22;62915;50.832;4.462;2022-11-21T16:32:03;9.80;99.90
23681;DHT22;62915;50.832;4.462;2022-11-21T16:34:28;9.70;99.90
23681;DHT22;62915;50.832;4.462;2022-11-21T16:36:54;9.80;99.90
23681;DHT22;62915;50.832;4.462;2022-11-21T16:39:20;9.70;99.90
23681;DHT22;62915;50.832;4.462;2022-11-21T16:41:46;9.70;99.90
23681;DHT22;62915;50.832;4.462;2022-11-21T16:44:15;9.60;99.90
23681;DHT22;62915;50.832;4.462;2022-11-21T16:46:44;9.60;99.90
23681;DHT22;62915;50.832;4.462;2022-11-21T16:49:13;9.60;99.90
23681;DHT22;62915;50.832;4.462;2022-11-21T16:51:39;9.60;99.90
23681;DHT22;62915;50.832;4.462;2022-11-21T16:54:16;9.70;99.90
23681;DHT22;62915;50.832;4.462;2022-11-21T16:56:49;9.60;99.90
23681;DHT22;62915;50.832;4.462;2022-11-21T16:59:20;9.50;99.90
23681;DHT22;62915;50.832;4.462;2022-11-21T17:01:57;9.60;99.90
23681;DHT22;62915;50.832;4.462;2022-11-21T17:04:50;9.70;99.90
23681;DHT22;62915;50.832;4.462;2022-11-21T17:07:16;9.60;99.90
23681;DHT22;62915;50.832;4.462;2022-11-21T17:09:53;9.60;99.90
23681;DHT22;62915;50.832;4.462;2022-11-21T17:12:27;9.60;99.90
23681;DHT22;62915;50.832;4.462;2022-11-21T17:15:12;9.50;99.90
23681;DHT22;62915;50.832;4.462;2022-11-21T17:17:41;9.50;99.90
23681;DHT22;62915;50.832;4.462;2022-11-21T17:20:10;9.40;99.90
23681;DHT22;62915;50.832;4.462;2022-11-21T17:22:46;9.50;99.90
23681;DHT22;62915;50.832;4.462;2022-11-21T17:25:20;9.40;99.90
23681;DHT22;62915;50.832;4.462;2022-11-21T17:27:48;9.40;99.90
23681;DHT22;62915;50.832;4.462;2022-11-21T17:30:22;9.50;99.90
23681;DHT22;62915;50.832;4.462;2022-11-21T17:32:47;9.50;99.90
23681;DHT22;62915;50.832;4.462;2022-11-21T17:35:16;9.40;99.90
23681;DHT22;62915;50.832;4.462;2022-11-21T17:37:43;9.30;99.90
23681;DHT22;62915;50.832;4.462;2022-11-21T17:40:11;9.30;99.90
23681;DHT22;62915;50.832;4.462;2022-11-21T17:42:39;9.20;99.90
23681;DHT22;62915;50.832;4.462;2022-11-21T17:45:09;9.30;99.90
23681;DHT22;62915;50.832;4.462;2022-11-21T17:47:38;9.30;99.90
23681;DHT22;62915;50.832;4.462;2022-11-21T17:50:11;9.20;99.90
23681;DHT22;62915;50.832;4.462;2022-11-21T17:52:41;9.10;99.90
23681;DHT22;62915;50.832;4.462;2022-11-21T17:55:07;9.10;99.90
23681;DHT22;62915;50.832;4.462;2022-11-21T17:57:33;9.10;99.90
23681;DHT22;62915;50.832;4.462;2022-11-21T17:59:58;9.00;99.90